Time;durP1;ratioP1;P1;durP2;ratioP2;P2;SDS_P1;SDS_P2;PMS_P1;PMS_P2;Temp;Humidity;BMP_temperature;BMP_pressure;BME280_temperature;BME280_humidity;BME280_pressure;Samples;Min_cycle;Max_cycle;Signal;HPM_P1;HPM_P2
2022/01/21 00:00:26;;;;;;;14.70;2.13;;;3.50;74.70;;;;;;6278898;22;20015;-77
2022/01/21 00:02:52;;;;;;;7.45;1.58;;;3.50;74.80;;;;;;6252055;22;20019;-77
2022/01/21 00:05:18;;;;;;;13.07;1.83;;;3.50;74.70;;;;;;6278166;22;20023;-77
2022/01/21 00:07:44;;;;;;;9.07;1.48;;;3.50;74.70;;;;;;6279296;22;20011;-77
2022/01/21 00:10:11;;;;;;;5.13;1.15;;;3.50;74.60;;;;;;6279133;22;20138;-77
2022/01/21 00:12:37;;;;;;;13.15;1.95;;;3.60;74.60;;;;;;6252041;22;20335;-78
2022/01/21 00:15:08;;;;;;;7.65;1.58;;;3.60;74.60;;;;;;6251585;22;20034;-78
2022/01/21 00:17:34;;;;;;;15.15;2.90;;;3.60;74.60;;;;;;6279769;22;20058;-78
2022/01/21 00:30:57;;;;;;;8.45;1.85;;;3.60;74.40;;;;;;6278932;22;20282;-77
2022/01/21 00:33:22;;;;;;;11.13;1.45;;;3.60;74.40;;;;;;6278663;22;20050;-77
2022/01/21 00:35:48;;;;;;;7.07;1.58;;;3.60;74.40;;;;;;6250878;22;20011;-77
2022/01/21 00:38:14;;;;;;;15.00;2.03;;;3.60;74.30;;;;;;6278935;22;20058;-77
2022/01/21 00:40:41;;;;;;;5.60;1.30;;;3.60;74.70;;;;;;6278934;22;20014;-77
2022/01/21 00:43:15;;;;;;;11.70;1.50;;;3.60;74.30;;;;;;6279223;22;20019;-77
2022/01/21 00:45:41;;;;;;;;;;;3.60;74.40;;;;;;6251843;22;20094;-77
2022/01/21 00:48:07;;;;;;;6.00;1.17;;;3.60;74.20;;;;;;6278837;22;19976;-77
2022/01/21 00:50:32;;;;;;;6.30;0.93;;;3.60;74.30;;;;;;6278908;22;20022;-77
2022/01/21 00:52:58;;;;;;;13.05;1.90;;;3.60;74.30;;;;;;6278755;22;20363;-77
2022/01/21 00:55:24;;;;;;;7.10;2.55;;;3.60;74.30;;;;;;6279112;22;20008;-77
2022/01/21 00:57:49;;;;;;;10.07;1.98;;;3.70;74.20;;;;;;6249830;22;20019;-77
2022/01/21 01:00:15;;;;;;;8.55;1.60;;;3.60;74.00;;;;;;6251180;22;20012;-77
2022/01/21 01:02:41;;;;;;;11.95;2.17;;;3.60;74.00;;;;;;6250329;22;20146;-77
2022/01/21 01:05:08;;;;;;;5.65;1.33;;;3.60;73.90;;;;;;6278505;22;20363;-77
2022/01/21 01:07:35;;;;;;;5.10;1.33;;;3.60;73.90;;;;;;6250687;22;20019;-77
2022/01/21 01:10:02;;;;;;;4.97;1.17;;;3.60;73.90;;;;;;6278251;22;20023;-77
2022/01/21 01:20:32;;;;;;;9.60;1.50;;;3.60;74.20;;;;;;6251190;22;20020;-77
2022/01/21 01:23:19;;;;;;;10.07;1.88;;;3.60;74.20;;;;;;6278828;22;20387;-78
2022/01/21 01:28:29;;;;;;;7.95;1.45;;;3.50;73.90;;;;;;6278433;22;20363;-76
2022/01/21 01:30:54;;;;;;;16.20;2.05;;;3.50;73.90;;;;;;6251020;22;20015;-76
2022/01/21 01:33:24;;;;;;;10.02;1.50;;;3.50;74.10;;;;;;6278452;22;20030;-76
2022/01/21 01:35:50;;;;;;;8.02;1.50;;;3.50;74.20;;;;;;6278730;22;20090;-76
2022/01/21 01:40:55;;;;;;;12.70;1.90;;;3.50;74.40;;;;;;6250810;22;20069;-76
2022/01/21 01:51:24;;;;;;;9.00;1.63;;;3.50;74.60;;;;;;6278278;22;20020;-75
2022/01/21 01:53:58;;;;;;;7.68;1.75;;;3.50;74.60;;;;;;6278245;22;20019;-76
2022/01/21 01:56:29;;;;;;;12.60;2.83;;;3.50;74.70;;;;;;6278321;22;20011;-76
2022/01/21 01:58:55;;;;;;;13.43;4.50;;;3.50;74.80;;;;;;6277756;22;20026;-75
2022/01/21 02:01:20;;;;;;;13.38;3.60;;;3.50;74.90;;;;;;6251085;22;20011;-75
2022/01/21 02:03:46;;;;;;;16.27;3.88;;;3.50;74.90;;;;;;6250050;22;20027;-76
2022/01/21 02:06:11;;;;;;;14.52;4.53;;;3.50;74.90;;;;;;6250967;22;20457;-75
2022/01/21 02:08:37;;;;;;;19.00;5.13;;;3.50;74.90;;;;;;6277849;22;20011;-75
2022/01/21 02:11:03;;;;;;;14.88;4.30;;;3.50;74.90;;;;;;6277614;22;20047;-75
2022/01/21 02:13:33;;;;;;;12.90;4.63;;;3.50;74.90;;;;;;6249863;22;20016;-76
2022/01/21 02:16:04;;;;;;;8.52;4.30;;;3.50;74.90;;;;;;6278034;22;20022;-76
2022/01/21 02:24:17;;;;;;;8.55;2.10;;;3.50;75.00;;;;;;6277381;22;20333;-76
2022/01/21 02:26:45;;;;;;;11.40;1.95;;;3.60;75.00;;;;;;6277669;22;20296;-76
2022/01/21 02:29:11;;;;;;;11.27;2.20;;;3.50;74.80;;;;;;6250399;22;20019;-76
2022/01/21 02:31:39;;;;;;;11.10;2.20;;;3.50;74.80;;;;;;6277790;22;20020;-75
2022/01/21 02:34:07;;;;;;;9.73;2.20;;;3.50;74.70;;;;;;6277343;22;20431;-76
2022/01/21 02:36:33;;;;;;;7.82;1.63;;;3.50;74.60;;;;;;6277407;22;20024;-75
2022/01/21 02:38:59;;;;;;;5.93;1.33;;;3.50;74.60;;;;;;6277367;22;20069;-76
2022/01/21 02:41:25;;;;;;;9.25;1.88;;;3.50;74.50;;;;;;6277041;22;20491;-76
2022/01/21 02:43:51;;;;;;;10.75;1.70;;;3.50;74.50;;;;;;6277511;22;20095;-76
2022/01/21 02:46:19;;;;;;;10.55;1.65;;;3.40;74.40;;;;;;6276086;22;20020;-75
2022/01/21 02:48:44;;;;;;;9.25;2.00;;;3.40;74.40;;;;;;6277128;22;20012;-76
2022/01/21 02:51:13;;;;;;;8.77;1.73;;;3.40;74.40;;;;;;6277903;22;20387;-75
2022/01/21 02:56:12;;;;;;;6.57;1.30;;;3.40;74.60;;;;;;6277797;22;20019;-76
2022/01/21 02:58:39;;;;;;;6.55;1.35;;;3.40;74.70;;;;;;6250169;22;20093;-76
2022/01/21 03:01:06;;;;;;;3.83;1.30;;;3.40;74.80;;;;;;6250090;22;20012;-76
2022/01/21 03:03:33;;;;;;;8.23;1.60;;;3.40;74.90;;;;;;6277669;22;20016;-76
2022/01/21 03:06:00;;;;;;;6.10;1.30;;;3.40;74.90;;;;;;6277800;22;20019;-76
2022/01/21 03:08:26;;;;;;;4.68;1.10;;;3.40;75.00;;;;;;6249790;22;20030;-76
2022/01/21 03:10:52;;;;;;;2.95;0.70;;;3.40;75.10;;;;;;6277331;22;20020;-76
2022/01/21 03:13:20;;;;;;;5.70;2.00;;;3.40;75.10;;;;;;6277526;22;20015;-76
2022/01/21 03:15:46;;;;;;;6.07;1.77;;;3.40;75.20;;;;;;6277964;22;20022;-77
2022/01/21 03:18:11;;;;;;;7.43;1.45;;;3.40;75.20;;;;;;6277701;22;20319;-76
2022/01/21 03:20:37;;;;;;;5.40;1.25;;;3.40;75.20;;;;;;6277336;22;20445;-76
2022/01/21 03:23:03;;;;;;;6.38;1.33;;;3.40;75.20;;;;;;6250427;22;20382;-77
2022/01/21 03:25:28;;;;;;;5.82;1.40;;;3.40;75.20;;;;;;6277354;22;20481;-76
2022/01/21 03:27:54;;;;;;;4.85;1.25;;;3.50;75.20;;;;;;6277599;22;20016;-76
2022/01/21 03:30:20;;;;;;;3.88;1.30;;;3.50;75.30;;;;;;6277372;22;20371;-76
2022/01/21 03:32:45;;;;;;;5.53;1.27;;;3.50;75.20;;;;;;6249842;22;20015;-76
2022/01/21 03:35:12;;;;;;;9.43;1.90;;;3.50;75.20;;;;;;6275706;22;20126;-76
2022/01/21 03:37:37;;;;;;;6.60;1.42;;;3.50;75.10;;;;;;6277138;22;20043;-77
2022/01/21 03:40:05;;;;;;;5.25;1.15;;;3.50;75.10;;;;;;6277120;22;20027;-77
2022/01/21 03:42:31;;;;;;;6.35;1.58;;;3.50;75.00;;;;;;6277148;22;20080;-76
2022/01/21 03:44:56;;;;;;;9.82;1.70;;;3.50;75.00;;;;;;6277486;22;20020;-76
2022/01/21 03:47:22;;;;;;;7.82;1.35;;;3.50;75.00;;;;;;6249696;22;20023;-77
2022/01/21 03:49:57;;;;;;;8.30;1.55;;;3.50;75.00;;;;;;6249915;22;20015;-76
2022/01/21 03:52:23;;;;;;;8.52;1.80;;;3.50;74.90;;;;;;6249638;22;20015;-77
2022/01/21 03:54:49;;;;;;;6.22;1.45;;;3.40;74.80;;;;;;6249962;22;20019;-76
2022/01/21 03:57:15;;;;;;;7.13;1.50;;;3.40;74.80;;;;;;6249521;22;20020;-76
2022/01/21 03:59:41;;;;;;;5.43;1.48;;;3.40;74.80;;;;;;6277286;22;20024;-76
2022/01/21 04:02:07;;;;;;;7.45;1.45;;;3.40;74.80;;;;;;6277065;22;20082;-76
2022/01/21 04:04:33;;;;;;;4.20;1.48;;;3.40;74.80;;;;;;6277199;22;20049;-76
2022/01/21 04:06:59;;;;;;;5.28;1.10;;;3.40;74.90;;;;;;6277119;22;20015;-76
2022/01/21 04:09:25;;;;;;;5.45;1.20;;;3.40;74.90;;;;;;6250032;22;20094;-76
2022/01/21 04:11:52;;;;;;;6.43;2.08;;;3.40;74.90;;;;;;6277126;22;20386;-76
2022/01/21 04:14:17;;;;;;;11.52;1.27;;;3.40;74.90;;;;;;6276415;22;20016;-76
2022/01/21 04:16:43;;;;;;;10.77;1.33;;;3.40;74.90;;;;;;6249807;22;20018;-76
2022/01/21 04:19:09;;;;;;;7.43;1.20;;;3.40;74.80;;;;;;6276749;22;20023;-76
2022/01/21 04:21:35;;;;;;;7.97;1.40;;;3.40;74.50;;;;;;6276661;22;20054;-76
2022/01/21 04:24:02;;;;;;;4.85;1.25;;;3.40;74.30;;;;;;6277033;22;20024;-76
2022/01/21 04:26:29;;;;;;;11.57;1.67;;;3.30;74.10;;;;;;6249383;22;20047;-76
2022/01/21 04:28:54;;;;;;;5.85;1.80;;;3.30;74.10;;;;;;6249658;22;20023;-76
2022/01/21 04:31:20;;;;;;;9.13;1.90;;;3.20;74.00;;;;;;6277187;22;20016;-76
2022/01/21 04:33:45;;;;;;;5.20;1.02;;;3.20;74.10;;;;;;6278601;22;20016;-76
2022/01/21 04:36:11;;;;;;;8.15;1.48;;;3.20;74.10;;;;;;6278551;22;20370;-76
2022/01/21 04:38:38;;;;;;;6.60;1.90;;;3.20;74.00;;;;;;6278584;22;20014;-76
2022/01/21 04:41:25;;;;;;;6.85;1.10;;;3.20;74.10;;;;;;6278747;22;20097;-77
2022/01/21 04:49:19;;;;;;;4.97;1.35;;;3.10;74.30;;;;;;6278785;22;20066;-76
2022/01/21 04:52:02;;;;;;;4.47;1.27;;;3.10;74.40;;;;;;6282212;22;20008;-76
2022/01/21 04:54:32;;;;;;;5.93;1.00;;;3.10;74.50;;;;;;6281408;22;20019;-76
2022/01/21 04:56:57;;;;;;;6.60;1.73;;;3.10;74.60;;;;;;6280238;22;20012;-77
2022/01/21 04:59:23;;;;;;;7.40;1.15;;;3.10;74.60;;;;;;6251112;22;20073;-76
2022/01/21 05:01:49;;;;;;;10.23;1.73;;;3.10;74.70;;;;;;6278598;22;20011;-76
2022/01/21 05:04:14;;;;;;;4.60;1.00;;;3.10;74.70;;;;;;6250838;22;20026;-77
2022/01/21 05:06:41;;;;;;;7.57;1.03;;;3.10;74.70;;;;;;6278725;22;20367;-77
2022/01/21 05:09:07;;;;;;;4.32;0.98;;;3.10;74.80;;;;;;6277899;22;20062;-77
2022/01/21 05:11:37;;;;;;;6.83;1.53;;;3.10;74.80;;;;;;6278738;22;20012;-77
2022/01/21 05:14:20;;;;;;;8.80;2.17;;;3.10;74.90;;;;;;6277988;22;20054;-76
2022/01/21 05:16:48;;;;;;;6.72;1.08;;;3.00;74.80;;;;;;6278680;22;20026;-76
2022/01/21 05:19:17;;;;;;;7.88;1.50;;;3.00;74.80;;;;;;6278426;22;20073;-77
2022/01/21 05:21:47;;;;;;;4.88;0.90;;;3.00;74.80;;;;;;6278324;22;20458;-77
2022/01/21 05:24:17;;;;;;;7.53;1.30;;;3.00;74.80;;;;;;6250785;22;20019;-76
2022/01/21 05:26:52;;;;;;;10.57;1.15;;;3.00;74.80;;;;;;6276699;22;20496;-77
2022/01/21 05:29:19;;;;;;;7.53;1.73;;;3.00;74.80;;;;;;6278374;22;20012;-76
2022/01/21 05:31:46;;;;;;;7.38;1.23;;;2.90;74.90;;;;;;6250828;22;20019;-77
2022/01/21 05:34:12;;;;;;;9.47;1.43;;;2.90;74.90;;;;;;6276735;22;20016;-77
2022/01/21 05:36:40;;;;;;;6.60;1.33;;;2.90;75.00;;;;;;6251071;22;20027;-77
2022/01/21 05:39:07;;;;;;;8.10;1.60;;;2.90;75.10;;;;;;6278225;22;20012;-76
2022/01/21 05:41:33;;;;;;;10.03;1.83;;;2.90;75.20;;;;;;6277983;22;20011;-76
2022/01/21 05:44:07;;;;;;;8.53;1.60;;;2.90;75.70;;;;;;6277937;22;20051;-77
2022/01/21 05:49:07;;;;;;;4.82;1.52;;;2.90;75.50;;;;;;6278366;22;20050;-77
2022/01/21 05:51:33;;;;;;;10.33;2.40;;;2.90;75.70;;;;;;6275958;22;20016;-77
2022/01/21 05:53:59;;;;;;;6.90;2.23;;;2.90;75.80;;;;;;6278366;22;20331;-78
2022/01/21 05:56:26;;;;;;;10.00;2.40;;;2.90;76.30;;;;;;6277712;22;20085;-77
2022/01/21 05:58:52;;;;;;;7.25;2.20;;;2.90;76.00;;;;;;6278423;22;20012;-77
2022/01/21 06:01:18;;;;;;;4.28;1.05;;;2.90;76.00;;;;;;6275748;22;20027;-76
2022/01/21 06:03:44;;;;;;;7.17;1.10;;;3.00;76.00;;;;;;6250492;22;20019;-78
2022/01/21 06:06:10;;;;;;;5.70;1.30;;;2.90;75.90;;;;;;6277653;22;20016;-78
2022/01/21 06:08:39;;;;;;;7.38;1.23;;;3.00;76.00;;;;;;6250557;22;20086;-78
2022/01/21 06:11:04;;;;;;;4.13;0.95;;;3.00;76.00;;;;;;6278000;22;20015;-78
2022/01/21 06:13:30;;;;;;;9.03;1.57;;;3.00;76.00;;;;;;6277589;22;20028;-79
2022/01/21 06:15:58;;;;;;;5.63;1.77;;;3.00;75.90;;;;;;6278227;22;20458;-79
2022/01/21 06:18:24;;;;;;;7.67;1.10;;;3.00;75.90;;;;;;6276870;22;20468;-77
2022/01/21 06:20:49;;;;;;;4.43;1.50;;;3.00;75.80;;;;;;6250619;22;20015;-78
2022/01/21 06:23:15;;;;;;;4.85;1.33;;;3.00;75.80;;;;;;6278366;22;20058;-77
2022/01/21 06:25:41;;;;;;;8.77;1.60;;;3.00;75.90;;;;;;6277879;22;20019;-78
2022/01/21 06:28:07;;;;;;;4.28;1.08;;;3.00;75.90;;;;;;6249050;22;20378;-78
2022/01/21 06:30:33;;;;;;;9.87;1.60;;;3.00;75.90;;;;;;6277813;22;20018;-78
2022/01/21 06:32:58;;;;;;;7.30;1.50;;;3.00;75.80;;;;;;6249782;22;20023;-78
2022/01/21 06:35:24;;;;;;;8.27;0.90;;;3.00;75.70;;;;;;6250619;22;20023;-78
2022/01/21 06:37:50;;;;;;;7.70;1.20;;;3.00;75.70;;;;;;6277247;22;20030;-82
2022/01/21 06:40:19;;;;;;;4.95;1.83;;;3.00;75.80;;;;;;6278278;22;20466;-82
2022/01/21 06:42:46;;;;;;;6.72;1.10;;;3.00;75.80;;;;;;6277691;22;20055;-82
2022/01/21 06:45:11;;;;;;;8.60;1.50;;;3.00;75.80;;;;;;6277728;22;20016;-82
2022/01/21 06:47:37;;;;;;;7.50;1.23;;;3.00;75.90;;;;;;6277599;22;20054;-82
2022/01/21 06:50:03;;;;;;;4.72;0.82;;;3.00;75.90;;;;;;6277361;22;20019;-81
2022/01/21 06:52:30;;;;;;;5.03;0.90;;;3.00;75.90;;;;;;6276104;22;20015;-82
2022/01/21 06:54:57;;;;;;;6.07;1.17;;;3.00;75.80;;;;;;6249727;22;20051;-82
2022/01/21 06:57:23;;;;;;;6.83;1.27;;;3.00;75.80;;;;;;6250379;22;20022;-82
2022/01/21 06:59:48;;;;;;;5.07;0.93;;;3.00;75.80;;;;;;6250365;22;20098;-82
2022/01/21 07:02:16;;;;;;;2.65;1.00;;;3.00;75.70;;;;;;6277304;22;20317;-82
2022/01/21 07:04:41;;;;;;;6.40;0.90;;;3.00;75.60;;;;;;6277384;22;20011;-82
2022/01/21 07:07:07;;;;;;;4.53;0.90;;;3.60;76.00;;;;;;6277574;22;20015;-82
2022/01/21 07:09:33;;;;;;;6.33;0.90;;;3.00;75.60;;;;;;6277384;22;20369;-81
2022/01/21 07:11:58;;;;;;;6.30;1.33;;;3.00;75.50;;;;;;6277328;22;20015;-84
2022/01/21 07:14:24;;;;;;;7.93;1.43;;;3.00;75.40;;;;;;6249882;22;20062;-81
2022/01/21 07:16:50;;;;;;;4.63;1.30;;;3.00;75.40;;;;;;6249874;22;20024;-81
2022/01/21 07:19:16;;;;;;;6.90;1.20;;;3.40;75.60;;;;;;6277527;22;20074;-81
2022/01/21 07:21:42;;;;;;;4.63;1.10;;;3.00;75.30;;;;;;6276999;22;20443;-81
2022/01/21 07:24:08;;;;;;;5.57;0.97;;;3.00;75.30;;;;;;6250231;22;20020;-81
2022/01/21 07:26:34;;;;;;;6.03;1.07;;;3.00;75.10;;;;;;6249865;22;20016;-81
2022/01/21 07:28:59;;;;;;;7.37;1.30;;;2.90;75.00;;;;;;6277403;22;20022;-81
2022/01/21 07:31:26;;;;;;;10.93;1.50;;;2.90;75.00;;;;;;6249881;22;20011;-81
2022/01/21 07:33:52;;;;;;;8.87;1.60;;;2.90;74.90;;;;;;6249944;22;20069;-81
2022/01/21 07:36:18;;;;;;;9.37;1.77;;;2.90;74.80;;;;;;6277336;22;20016;-80
2022/01/21 07:38:45;;;;;;;8.37;1.40;;;3.10;74.90;;;;;;6250263;22;20020;-82
2022/01/21 07:41:11;;;;;;;9.57;1.47;;;2.80;74.70;;;;;;6250105;22;20024;-81
2022/01/21 07:43:36;;;;;;;9.13;1.27;;;3.20;75.00;;;;;;6277616;22;20362;-81
2022/01/21 07:46:03;;;;;;;11.50;1.80;;;2.70;74.80;;;;;;6275266;22;20455;-81
2022/01/21 07:48:28;;;;;;;7.43;1.17;;;2.70;74.80;;;;;;6277015;22;20126;-81
2022/01/21 07:50:54;;;;;;;7.10;1.70;;;2.70;74.80;;;;;;6277028;22;20059;-82
2022/01/21 07:53:20;;;;;;;8.63;1.30;;;2.70;74.90;;;;;;6277062;22;20095;-81
2022/01/21 07:55:50;;;;;;;7.40;1.10;;;2.70;75.00;;;;;;6250160;22;20353;-82
2022/01/21 07:58:16;;;;;;;4.00;0.90;;;2.60;75.00;;;;;;6277122;22;20054;-81
2022/01/21 08:00:42;;;;;;;7.60;1.20;;;2.60;75.10;;;;;;6249886;22;20336;-81
2022/01/21 08:03:07;;;;;;;8.00;1.20;;;2.60;75.30;;;;;;6277153;22;20020;-81
2022/01/21 08:05:34;;;;;;;9.60;2.60;;;2.60;75.40;;;;;;6250273;22;20015;-81
2022/01/21 08:08:01;;;;;;;9.00;2.50;;;2.60;75.40;;;;;;6251444;22;20020;-81
2022/01/21 08:10:27;;;;;;;7.50;1.27;;;2.60;75.50;;;;;;6251817;22;20331;-81
2022/01/21 08:12:53;;;;;;;4.70;1.03;;;2.70;75.50;;;;;;6279021;22;20435;-81
2022/01/21 08:15:19;;;;;;;5.60;1.37;;;2.60;75.50;;;;;;6252158;22;20020;-82
2022/01/21 08:17:45;;;;;;;4.50;1.10;;;2.50;75.60;;;;;;6278952;22;20086;-81
2022/01/21 08:20:11;;;;;;;8.43;1.13;;;2.60;75.70;;;;;;6278914;22;20387;-81
2022/01/21 08:22:37;;;;;;;4.50;1.10;;;2.60;75.80;;;;;;6279105;22;20300;-82
2022/01/21 08:25:04;;;;;;;8.00;1.57;;;2.50;75.90;;;;;;6251534;22;20016;-82
2022/01/21 08:27:30;;;;;;;7.73;1.53;;;2.60;76.00;;;;;;6251636;22;20135;-81
2022/01/21 08:29:56;;;;;;;8.13;1.67;;;2.60;76.00;;;;;;6251385;22;20051;-81
2022/01/21 08:32:22;;;;;;;9.00;1.97;;;2.60;76.10;;;;;;6279044;22;20012;-82
2022/01/21 08:34:49;;;;;;;9.60;1.30;;;2.60;76.20;;;;;;6276344;22;20059;-80
2022/01/21 08:37:16;;;;;;;9.70;1.87;;;2.60;76.30;;;;;;6279088;22;20011;-80
2022/01/21 08:39:43;;;;;;;13.73;1.60;;;2.70;76.50;;;;;;6278347;22;20091;-81
2022/01/21 08:42:10;;;;;;;11.20;1.57;;;2.60;76.60;;;;;;6251785;22;20023;-81
2022/01/21 08:44:35;;;;;;;12.13;1.73;;;2.70;76.80;;;;;;6251228;22;20020;-81
2022/01/21 08:47:01;;;;;;;10.77;1.43;;;2.80;77.00;;;;;;6251782;22;20042;-81
2022/01/21 08:49:27;;;;;;;10.93;2.00;;;2.80;77.20;;;;;;6251276;22;20012;-83
2022/01/21 08:51:57;;;;;;;15.47;3.83;;;2.90;77.50;;;;;;6276378;22;20061;-78
2022/01/21 08:54:24;;;;;;;13.17;2.17;;;2.90;77.50;;;;;;6278832;22;20020;-78
2022/01/21 08:56:52;;;;;;;14.17;2.00;;;3.00;77.70;;;;;;6250452;22;20015;-79
2022/01/21 08:59:18;;;;;;;7.97;1.53;;;3.10;77.80;;;;;;6278925;22;20016;-79
2022/01/21 09:01:51;;;;;;;11.83;2.00;;;3.10;77.80;;;;;;6278316;22;20034;-79
2022/01/21 09:04:17;;;;;;;11.57;1.90;;;3.20;77.80;;;;;;6278829;22;20015;-78
2022/01/21 09:06:44;;;;;;;14.60;2.45;;;3.30;77.70;;;;;;6277201;22;20103;-79
2022/01/21 09:09:09;;;;;;;12.75;2.13;;;3.40;77.70;;;;;;6278524;22;20011;-78
2022/01/21 09:11:35;;;;;;;14.70;1.90;;;3.50;77.80;;;;;;6278905;22;20110;-78
2022/01/21 09:14:02;;;;;;;15.23;1.77;;;3.40;77.70;;;;;;6293229;22;20377;-79
2022/01/21 09:16:28;;;;;;;10.40;1.90;;;3.50;78.30;;;;;;6292678;22;20078;-81
2022/01/21 09:18:56;;;;;;;10.73;2.25;;;3.50;78.00;;;;;;6259522;22;20065;-79
2022/01/21 09:21:25;;;;;;;11.55;2.15;;;3.60;78.10;;;;;;6279321;22;20051;-79
2022/01/21 09:23:52;;;;;;;12.02;2.10;;;3.60;78.20;;;;;;6251610;22;20037;-79
2022/01/21 09:26:20;;;;;;;19.73;3.08;;;3.60;78.30;;;;;;6251631;22;20058;-80
2022/01/21 09:28:47;;;;;;;13.55;1.95;;;3.60;78.40;;;;;;6278920;22;20054;-80
2022/01/21 09:31:13;;;;;;;8.60;1.95;;;3.90;78.70;;;;;;6278283;22;20474;-79
2022/01/21 09:33:43;;;;;;;11.15;2.05;;;4.00;78.80;;;;;;6277876;22;20051;-79
2022/01/21 09:36:10;;;;;;;16.80;2.00;;;3.80;78.70;;;;;;6278320;22;20111;-79
2022/01/21 09:38:37;;;;;;;12.75;2.00;;;3.80;78.80;;;;;;6278405;22;20012;-78
2022/01/21 09:41:04;;;;;;;11.57;2.40;;;4.00;79.00;;;;;;6278432;22;20054;-80
2022/01/21 09:43:33;;;;;;;13.40;2.58;;;3.80;79.00;;;;;;6275407;22;20015;-79
2022/01/21 09:45:59;;;;;;;9.35;2.17;;;3.90;79.10;;;;;;6278493;22;20313;-80
2022/01/21 09:48:29;;;;;;;9.63;1.77;;;4.20;79.40;;;;;;6277756;22;20031;-80
2022/01/21 09:51:00;;;;;;;14.63;2.00;;;3.90;79.30;;;;;;6277917;22;20026;-81
2022/01/21 09:53:27;;;;;;;15.57;2.58;;;4.10;79.50;;;;;;6278424;22;20020;-81
2022/01/21 09:56:05;;;;;;;13.55;2.58;;;4.00;79.40;;;;;;6278115;22;20114;-81
2022/01/21 09:58:32;;;;;;;9.25;2.95;;;4.00;79.50;;;;;;6278407;22;20020;-81
2022/01/21 10:00:59;;;;;;;19.40;2.70;;;4.10;79.60;;;;;;6278259;22;20061;-78
2022/01/21 10:03:25;;;;;;;11.57;2.40;;;4.10;79.70;;;;;;6250862;22;20427;-80
2022/01/21 10:05:53;;;;;;;11.77;2.17;;;4.20;79.80;;;;;;6277872;22;20042;-81
2022/01/21 10:08:22;;;;;;;14.93;2.22;;;4.20;79.90;;;;;;6278109;22;20493;-80
2022/01/21 10:10:48;;;;;;;9.07;1.95;;;4.30;80.00;;;;;;6278057;22;20027;-81
2022/01/21 10:13:18;;;;;;;16.63;2.22;;;4.30;80.10;;;;;;6277786;22;20432;-80
2022/01/21 10:15:45;;;;;;;13.27;2.38;;;4.40;80.20;;;;;;6278145;22;20434;-81
2022/01/21 10:18:14;;;;;;;12.90;2.45;;;4.40;80.20;;;;;;6278316;22;20018;-81
2022/01/21 10:21:06;;;;;;;14.07;3.20;;;4.50;80.30;;;;;;6278096;22;20336;-81
2022/01/21 10:23:36;;;;;;;16.52;2.50;;;4.50;80.40;;;;;;6278309;22;20016;-80
2022/01/21 10:26:03;;;;;;;15.40;2.70;;;4.60;80.50;;;;;;6277928;22;20023;-81
2022/01/21 10:28:30;;;;;;;15.15;2.38;;;4.80;80.60;;;;;;6277823;22;20030;-81
2022/01/21 10:31:27;;;;;;;17.75;2.47;;;4.60;80.40;;;;;;6276985;22;20557;-81
2022/01/21 10:33:56;;;;;;;17.75;3.25;;;4.70;80.70;;;;;;6129536;23;20029;-81
2022/01/21 10:36:29;;;;;;;18.52;3.15;;;4.80;80.70;;;;;;6154177;23;20018;-82
2022/01/21 10:39:28;;;;;;;12.90;2.40;;;4.90;80.90;;;;;;6129620;23;20450;-81
2022/01/21 10:41:56;;;;;;;17.02;2.75;;;4.90;81.00;;;;;;6154042;23;20018;-81
2022/01/21 10:44:21;;;;;;;8.75;1.83;;;5.00;81.10;;;;;;6129912;23;20048;-81
2022/01/21 10:47:13;;;;;;;14.77;2.55;;;5.00;81.20;;;;;;6154546;23;20489;-81
2022/01/21 10:49:40;;;;;;;19.77;3.15;;;5.20;81.40;;;;;;6123712;23;20064;-80
2022/01/21 10:52:11;;;;;;;17.20;2.72;;;5.20;81.40;;;;;;6128055;23;20100;-81
2022/01/21 10:54:49;;;;;;;13.95;3.17;;;5.30;81.50;;;;;;6129415;23;20119;-81
2022/01/21 10:57:15;;;;;;;16.08;3.25;;;5.40;81.70;;;;;;6153967;23;20040;-81
2022/01/21 11:00:00;;;;;;;24.23;5.13;;;5.60;81.80;;;;;;6154242;23;20327;-80
2022/01/21 11:02:32;;;;;;;19.95;4.07;;;5.60;82.00;;;;;;6129672;23;20050;-81
2022/01/21 11:05:01;;;;;;;21.00;5.18;;;5.90;82.20;;;;;;6153649;23;20024;-81
2022/01/21 11:07:50;;;;;;;26.00;5.88;;;5.80;82.10;;;;;;6154245;23;20430;-81
2022/01/21 11:10:35;;;;;;;19.17;4.57;;;5.90;82.20;;;;;;6192717;22;20063;-82
2022/01/21 11:13:15;;;;;;;14.88;2.83;;;6.00;82.20;;;;;;6250568;22;20042;-81
2022/01/21 11:15:43;;;;;;;18.27;4.28;;;6.20;82.10;;;;;;6249954;22;20027;-79
2022/01/21 11:18:13;;;;;;;18.50;2.60;;;6.20;82.00;;;;;;6249087;22;20012;-82
2022/01/21 11:20:45;;;;;;;15.05;2.63;;;6.30;81.80;;;;;;6249776;22;20465;-79
2022/01/21 11:23:11;;;;;;;13.95;3.08;;;6.70;81.90;;;;;;6277081;22;20069;-79
2022/01/21 11:25:59;;;;;;;18.27;3.25;;;6.70;81.70;;;;;;6277364;22;20087;-78
2022/01/21 11:28:27;;;;;;;13.32;3.10;;;6.50;81.40;;;;;;6277358;22;20095;-78
2022/01/21 11:30:54;;;;;;;16.23;3.17;;;6.60;81.20;;;;;;6277703;22;20054;-79
2022/01/21 11:33:21;;;;;;;14.38;2.67;;;6.80;81.10;;;;;;6250064;22;20020;-79
2022/01/21 11:35:49;;;;;;;22.58;3.08;;;7.20;81.10;;;;;;6277024;22;20011;-79
2022/01/21 11:38:18;;;;;;;12.13;1.85;;;6.80;80.60;;;;;;6249792;22;20020;-78
2022/01/21 11:40:44;;;;;;;15.60;3.28;;;6.80;80.30;;;;;;6277620;22;20070;-79
2022/01/21 11:43:11;;;;;;;13.02;2.35;;;7.20;80.40;;;;;;6279580;22;20016;-79
2022/01/21 11:50:48;;;;;;;22.25;4.28;;;7.00;79.70;;;;;;6278932;22;20020;-78
2022/01/21 11:53:14;;;;;;;12.40;3.85;;;7.10;79.70;;;;;;6279193;22;20022;-79
2022/01/21 11:55:47;;;;;;;13.23;2.78;;;7.20;79.60;;;;;;6277457;22;20011;-79
2022/01/21 11:58:17;;;;;;;21.75;4.93;;;7.10;79.40;;;;;;6278569;22;20015;-78
2022/01/21 12:00:45;;;;;;;15.98;5.20;;;7.10;79.30;;;;;;6279459;22;20082;-80
2022/01/21 12:03:11;;;;;;;14.63;2.45;;;7.50;79.40;;;;;;6279677;22;20016;-79
2022/01/21 12:05:37;;;;;;;11.35;2.75;;;7.20;79.00;;;;;;6278633;22;20058;-80
2022/01/21 12:08:04;;;;;;;13.23;3.42;;;7.30;78.80;;;;;;6251815;22;20053;-79
2022/01/21 12:10:31;;;;;;;13.90;2.10;;;7.20;78.60;;;;;;6279473;22;20046;-80
2022/01/21 12:13:06;;;;;;;13.95;2.13;;;7.70;78.80;;;;;;6278583;22;20024;-81
2022/01/21 12:15:38;;;;;;;13.70;2.50;;;7.30;78.50;;;;;;6251552;22;20023;-81
2022/01/21 12:18:09;;;;;;;13.63;2.80;;;7.30;78.40;;;;;;6278614;22;20020;-82
2022/01/21 12:20:36;;;;;;;10.40;2.58;;;7.70;78.60;;;;;;6277137;22;20027;-84
2022/01/21 12:23:12;;;;;;;12.38;1.90;;;7.30;78.10;;;;;;6279072;22;20323;-76
2022/01/21 12:26:16;;;;;;;7.05;1.70;;;7.70;78.20;;;;;;6279455;22;20012;-74
2022/01/21 12:28:46;;;;;;;5.78;1.77;;;7.40;77.80;;;;;;6279342;22;20016;-75
2022/01/21 12:31:15;;;;;;;11.95;2.53;;;7.30;77.70;;;;;;6252387;22;20054;-75
2022/01/21 12:34:09;;;;;;;9.95;1.58;;;7.30;77.50;;;;;;6278673;22;20046;-74
2022/01/21 12:36:44;;;;;;;13.50;2.42;;;7.40;77.50;;;;;;6279225;22;20047;-75
2022/01/21 12:39:34;;;;;;;10.63;2.08;;;7.30;77.40;;;;;;6278730;22;20062;-75
2022/01/21 12:42:27;;;;;;;12.77;2.17;;;7.30;77.20;;;;;;6252087;22;20069;-75
2022/01/21 12:45:13;;;;;;;14.63;2.50;;;7.30;77.30;;;;;;6251651;22;20023;-75
2022/01/21 12:47:48;;;;;;;7.40;1.80;;;7.30;77.20;;;;;;6155643;23;20318;-75
2022/01/21 12:52:55;;;;;;;14.40;2.65;;;7.30;77.20;;;;;;6154646;23;20034;-75
2022/01/21 12:58:12;;;;;;;10.13;2.15;;;7.30;77.20;;;;;;6155197;23;20028;-75
2022/01/21 13:00:38;;;;;;;11.35;2.05;;;7.40;77.20;;;;;;6130512;23;20027;-75
2022/01/21 13:03:32;;;;;;;12.45;2.40;;;7.40;77.10;;;;;;6130394;23;20017;-75
2022/01/21 13:06:11;;;;;;;12.07;2.28;;;7.40;77.00;;;;;;6066965;23;20023;-74
2022/01/21 13:09:06;;;;;;;16.13;2.63;;;7.30;77.00;;;;;;6043467;23;20029;-75
2022/01/21 13:11:33;;;;;;;12.63;3.30;;;7.30;77.00;;;;;;6067862;23;20015;-75
2022/01/21 13:14:26;;;;;;;15.05;2.05;;;7.30;77.00;;;;;;6067291;23;20075;-75
2022/01/21 13:16:56;;;;;;;13.20;2.00;;;7.40;77.00;;;;;;6043413;23;20090;-75
2022/01/21 13:19:22;;;;;;;8.55;2.13;;;7.30;76.70;;;;;;6043751;23;20412;-75
2022/01/21 13:21:48;;;;;;;15.63;2.63;;;7.30;76.70;;;;;;6067317;23;20019;-74
2022/01/21 13:24:51;;;;;;;14.75;2.50;;;7.30;76.60;;;;;;6093814;23;20469;-75
2022/01/21 13:27:09;;;;;;;14.05;2.70;;;7.30;76.50;;;;;;6151724;23;20029;-75
2022/01/21 13:29:37;;;;;;;11.10;2.30;;;7.30;76.40;;;;;;6154657;23;20021;-76
2022/01/21 13:32:05;;;;;;;14.45;3.72;;;7.30;76.40;;;;;;6155889;23;20014;-75
2022/01/21 13:34:36;;;;;;;15.85;2.17;;;7.30;76.50;;;;;;6130141;23;20152;-76
2022/01/21 13:37:04;;;;;;;14.43;3.70;;;7.30;76.60;;;;;;6154839;23;20021;-75
2022/01/21 13:39:33;;;;;;;13.10;2.78;;;7.30;76.60;;;;;;6154725;23;20014;-75
2022/01/21 13:42:10;;;;;;;15.32;2.65;;;7.30;76.60;;;;;;6137493;22;20076;-75
2022/01/21 13:44:46;;;;;;;19.00;4.70;;;7.30;76.60;;;;;;6277884;22;20026;-75
2022/01/21 13:47:46;;;;;;;22.65;5.88;;;7.30;76.50;;;;;;6250926;22;20054;-75
2022/01/21 13:50:22;;;;;;;17.88;4.88;;;7.30;76.40;;;;;;6278292;22;20333;-75
2022/01/21 13:52:51;;;;;;;19.45;4.10;;;7.30;76.50;;;;;;6251004;22;20016;-75
2022/01/21 13:55:39;;;;;;;14.77;3.83;;;7.40;76.50;;;;;;6278283;22;20015;-75
2022/01/21 13:58:08;;;;;;;16.10;3.20;;;7.40;76.50;;;;;;6277502;22;20470;-75
2022/01/21 14:00:59;;;;;;;11.65;3.20;;;7.30;76.40;;;;;;6251033;22;20062;-75